Weather at Andrés Sabella Gálvez International Airport

Public forecast

Using degrees Celsius for public forecast. Weather courtesy of forecast.io.

Current aviation weather report (METAR) for Andrés Sabella Gálvez International Airport

2024/06/18 04:00 (retrieved 58 minutes ago)

SCFA 180400Z 20005KT 9999 OVC019 14/10 Q1016 NOSIG

Closest aviation forecast (TAF) to Andrés Sabella Gálvez International Airport

Forecast is more than 6 hours old.

Closest forecast is General Jorge Fernandez Maldon Airport, 348.9 nm (646.1 km) N.

2024/06/17 18:00 (retrieved 11 hours ago)

TAF SPLO 171700Z 1718/1818 20008KT 9999 SCT015 BKN020 TX20/1719Z TN16/1810Z